createdAt,value
2023-04-02T00:04:09.211Z,90.11
2023-04-02T00:09:17.557Z,89.96
2023-04-02T00:14:31.871Z,90.31
2023-04-02T00:19:51.755Z,90.58
2023-04-02T00:25:02.964Z,89.76
2023-04-02T00:30:06.708Z,89.91
2023-04-02T00:35:21.891Z,89.58
2023-04-02T00:40:26.813Z,89.90
2023-04-02T00:45:33.310Z,89.90
2023-04-02T00:50:55.445Z,90.25
2023-04-02T00:55:58.961Z,90.33
2023-04-02T01:01:04.728Z,90.39
2023-04-02T01:06:15.898Z,90.36
2023-04-02T01:11:44.961Z,90.66
2023-04-02T01:17:26.547Z,90.17
2023-04-02T01:22:49.376Z,90.65
2023-04-02T01:28:13.622Z,90.15
2023-04-02T01:33:30.336Z,90.41
2023-04-02T01:38:45.942Z,90.17
2023-04-02T01:44:03.067Z,90.66
2023-04-02T01:49:21.562Z,90.45
2023-04-02T01:54:25.942Z,90.49
2023-04-02T01:59:33.275Z,90.40
2023-04-02T02:04:47.047Z,90.38
2023-04-02T02:09:54.137Z,90.60
2023-04-02T02:14:59.408Z,90.46
2023-04-02T02:20:15.000Z,90.26
2023-04-02T02:25:30.937Z,90.30
2023-04-02T02:32:05.120Z,90.52
2023-04-02T02:37:31.086Z,90.54
2023-04-02T02:42:42.843Z,89.90
2023-04-02T02:47:48.381Z,90.48
2023-04-02T02:53:15.531Z,90.32
2023-04-02T02:58:39.011Z,90.59
2023-04-02T03:03:59.213Z,90.42
2023-04-02T03:09:31.532Z,90.78
2023-04-02T03:14:41.028Z,90.53
2023-04-02T03:20:02.470Z,90.65
2023-04-02T03:25:24.825Z,91.00
2023-04-02T03:30:50.492Z,90.51
2023-04-02T03:36:14.892Z,90.79
2023-04-02T03:41:47.196Z,90.66
2023-04-02T03:47:20.363Z,90.68
2023-04-02T03:52:27.248Z,90.82
2023-04-02T03:57:48.839Z,90.83
2023-04-02T04:02:57.708Z,90.86
2023-04-02T04:08:50.486Z,90.51
2023-04-02T04:14:05.876Z,90.62
2023-04-02T04:20:02.687Z,90.29
2023-04-02T04:26:09.956Z,90.37
2023-04-02T04:31:41.022Z,90.85
2023-04-02T04:36:56.060Z,90.62
2023-04-02T04:42:19.030Z,90.54
2023-04-02T04:48:12.450Z,90.74
2023-04-02T04:53:50.458Z,90.69
2023-04-02T04:59:21.392Z,90.48
2023-04-02T05:05:03.703Z,90.06
2023-04-02T05:11:04.789Z,89.75
2023-04-02T05:16:45.745Z,89.83
2023-04-02T05:22:26.241Z,90.13
2023-04-02T05:28:01.059Z,89.77
2023-04-02T05:33:18.242Z,89.95
2023-04-02T05:38:32.024Z,89.98
2023-04-02T05:43:48.210Z,89.95
2023-04-02T05:48:56.886Z,90.34
2023-04-02T05:54:04.015Z,90.67
2023-04-02T05:59:37.714Z,90.46
2023-04-02T06:05:02.222Z,90.51
2023-04-02T06:10:14.464Z,90.51
2023-04-02T06:15:21.520Z,90.72
2023-04-02T06:20:27.533Z,90.85
2023-04-02T06:25:47.958Z,90.71
2023-04-02T06:30:54.860Z,90.91
2023-04-02T06:36:04.259Z,90.74
2023-04-02T06:41:19.576Z,90.62
2023-04-02T06:46:55.024Z,90.58
2023-04-02T06:52:00.490Z,90.63
2023-04-02T06:57:05.843Z,90.72
2023-04-02T07:02:31.409Z,90.81
2023-04-02T07:07:37.165Z,90.91
2023-04-02T07:12:45.558Z,90.78
2023-04-02T07:17:52.751Z,90.43
2023-04-02T07:22:56.075Z,89.99
2023-04-02T07:28:14.001Z,89.75
2023-04-02T07:33:23.576Z,89.37
2023-04-02T07:38:25.947Z,89.26
2023-04-02T07:43:28.862Z,89.64
2023-04-02T07:48:34.150Z,89.91
2023-04-02T07:53:41.894Z,90.10
2023-04-02T07:58:44.536Z,90.08
2023-04-02T08:03:47.946Z,89.99
2023-04-02T08:08:51.451Z,89.92
2023-04-02T08:13:53.645Z,89.96
2023-04-02T08:18:56.791Z,89.84
2023-04-02T08:23:59.803Z,90.06
2023-04-02T08:29:05.091Z,90.05
2023-04-02T08:34:09.309Z,90.03
2023-04-02T08:39:34.260Z,89.78
2023-04-02T08:44:52.751Z,89.71
2023-04-02T08:50:02.393Z,89.43
2023-04-02T08:55:32.853Z,89.51
2023-04-02T09:00:45.658Z,89.57
2023-04-02T09:05:51.701Z,89.91
2023-04-02T09:11:13.275Z,89.96
2023-04-02T09:16:39.419Z,90.03
2023-04-02T09:21:53.468Z,90.33
2023-04-02T09:26:56.852Z,90.68
2023-04-02T09:32:50.088Z,90.84
2023-04-02T09:38:17.667Z,91.16
2023-04-02T09:43:30.681Z,91.04
2023-04-02T09:48:41.462Z,91.28
2023-04-02T09:53:49.136Z,91.08
2023-04-02T09:59:13.755Z,90.90
2023-04-02T10:04:45.306Z,90.74
2023-04-02T10:09:58.679Z,90.55
2023-04-02T10:15:06.681Z,90.59
2023-04-02T10:20:20.108Z,90.82
2023-04-02T10:25:30.512Z,90.70
2023-04-02T10:31:08.918Z,90.45
2023-04-02T10:36:55.085Z,90.52
2023-04-02T10:42:30.698Z,90.10
2023-04-02T10:48:16.780Z,89.93
2023-04-02T10:53:48.466Z,89.66
2023-04-02T10:59:01.844Z,89.10
2023-04-02T11:04:21.718Z,89.23
2023-04-02T11:09:41.028Z,89.26
2023-04-02T11:14:43.492Z,89.35
2023-04-02T11:19:56.651Z,89.10
2023-04-02T11:25:14.288Z,88.52
2023-04-02T11:30:30.358Z,88.01
2023-04-02T11:35:53.086Z,88.14
2023-04-02T11:41:00.988Z,88.21
2023-04-02T11:46:41.784Z,88.06
2023-04-02T11:51:56.393Z,87.87
2023-04-02T11:57:33.258Z,87.75
2023-04-02T12:02:57.302Z,87.67
2023-04-02T12:08:22.745Z,87.23
2023-04-02T12:13:58.768Z,87.24
2023-04-02T12:19:19.504Z,87.47
2023-04-02T12:24:44.552Z,87.61
2023-04-02T12:29:57.935Z,87.91
2023-04-02T12:35:05.026Z,87.12
2023-04-02T12:40:26.507Z,86.69
2023-04-02T12:45:39.583Z,86.69
2023-04-02T12:50:50.725Z,87.04
2023-04-02T12:55:59.112Z,86.94
2023-04-02T13:01:27.601Z,86.89
2023-04-02T13:06:41.247Z,87.13
2023-04-02T13:11:46.281Z,86.95
2023-04-02T13:17:00.826Z,86.63
2023-04-02T13:22:43.735Z,86.80
2023-04-02T13:27:59.649Z,86.46
2023-04-02T13:33:13.896Z,85.63
2023-04-02T13:38:21.322Z,85.41
2023-04-02T13:43:42.994Z,85.81
2023-04-02T13:49:09.305Z,85.86
2023-04-02T13:55:04.408Z,85.69
2023-04-02T14:00:17.383Z,85.70
2023-04-02T14:05:57.716Z,85.49
2023-04-02T14:11:40.232Z,85.19
2023-04-02T14:17:21.962Z,85.43
2023-04-02T14:23:07.299Z,85.67
2023-04-02T14:28:59.540Z,85.71
2023-04-02T14:34:39.214Z,85.87
2023-04-02T14:40:07.884Z,85.62
2023-04-02T14:45:31.700Z,85.72
2023-04-02T14:50:50.370Z,85.86
2023-04-02T14:55:59.703Z,86.01
2023-04-02T15:01:15.384Z,86.09
2023-04-02T15:06:25.314Z,86.33
2023-04-02T15:12:18.425Z,86.33
2023-04-02T15:17:59.871Z,86.25
2023-04-02T15:23:57.567Z,86.22
2023-04-02T15:29:58.789Z,86.38
2023-04-02T15:35:29.021Z,86.44
2023-04-02T15:41:25.324Z,86.17
2023-04-02T15:46:53.235Z,86.08
2023-04-02T15:52:43.837Z,86.08
2023-04-02T15:58:21.993Z,86.00
2023-04-02T16:04:13.954Z,85.92
2023-04-02T16:09:32.156Z,85.90
2023-04-02T16:14:50.793Z,85.92
2023-04-02T16:20:57.106Z,86.02
2023-04-02T16:26:16.023Z,86.23
2023-04-02T16:31:53.647Z,86.43
2023-04-02T16:37:38.266Z,86.50
2023-04-02T16:43:15.513Z,86.59
2023-04-02T16:49:36.218Z,86.33
2023-04-02T16:55:25.732Z,86.45
2023-04-02T17:01:17.215Z,86.75
2023-04-02T17:06:54.014Z,86.88
2023-04-02T17:12:24.408Z,87.01
2023-04-02T17:17:42.868Z,87.07
2023-04-02T17:23:05.846Z,86.98
2023-04-02T17:28:42.534Z,87.01
2023-04-02T17:33:45.096Z,86.98
2023-04-02T17:39:47.214Z,86.81
2023-04-02T17:45:05.175Z,86.77
2023-04-02T17:50:25.195Z,86.60
2023-04-02T17:55:43.263Z,86.37
2023-04-02T18:01:22.241Z,86.62
2023-04-02T18:06:38.080Z,86.45
2023-04-02T18:12:27.870Z,86.40
2023-04-02T18:17:54.299Z,86.55
2023-04-02T18:23:40.530Z,86.80
2023-04-02T18:28:56.384Z,86.70
2023-04-02T18:34:40.200Z,86.67
2023-04-02T18:39:54.272Z,86.54
2023-04-02T18:45:30.376Z,86.69
2023-04-02T18:50:41.905Z,86.70
2023-04-02T18:55:55.375Z,86.74
2023-04-02T19:01:02.185Z,86.75
2023-04-02T19:06:46.548Z,86.93
2023-04-02T19:12:06.768Z,87.05
2023-04-02T19:17:39.480Z,87.14
2023-04-02T19:23:10.721Z,87.45
2023-04-02T19:29:17.758Z,87.45
2023-04-02T19:34:34.418Z,87.62
2023-04-02T19:40:31.086Z,87.63
2023-04-02T19:45:46.901Z,87.85
2023-04-02T19:50:51.952Z,87.93
2023-04-02T19:55:57.562Z,88.02
2023-04-02T20:01:01.561Z,87.78
2023-04-02T20:06:06.838Z,87.87
2023-04-02T20:11:14.827Z,87.86
2023-04-02T20:16:17.018Z,87.86
2023-04-02T20:21:19.963Z,87.87
2023-04-02T20:26:34.236Z,87.82
2023-04-02T20:31:49.851Z,87.79
2023-04-02T20:36:54.320Z,87.94
2023-04-02T20:42:02.742Z,87.91
2023-04-02T20:47:08.055Z,87.65
2023-04-02T20:52:16.292Z,87.70
2023-04-02T20:57:21.774Z,87.70
2023-04-02T21:02:35.275Z,87.65
2023-04-02T21:07:49.346Z,87.70
2023-04-02T21:13:14.123Z,87.56
2023-04-02T21:18:22.145Z,87.63
2023-04-02T21:23:30.902Z,87.51
2023-04-02T21:28:36.317Z,87.34
2023-04-02T21:33:50.600Z,87.58
2023-04-02T21:39:23.022Z,87.47
2023-04-02T21:44:29.668Z,87.32
2023-04-02T21:49:39.037Z,87.23
2023-04-02T21:54:53.135Z,87.09
2023-04-02T22:00:12.383Z,87.11
2023-04-02T22:05:17.634Z,86.60
2023-04-02T22:10:31.449Z,86.49
2023-04-02T22:15:35.186Z,86.70
2023-04-02T22:20:41.227Z,86.68
2023-04-02T22:26:09.655Z,86.76
2023-04-02T22:31:19.057Z,86.50
2023-04-02T22:36:37.050Z,86.49
2023-04-02T22:41:42.361Z,86.49
2023-04-02T22:46:50.762Z,86.41
2023-04-02T22:52:28.459Z,86.46
2023-04-02T22:58:02.624Z,86.69
2023-04-02T23:03:14.859Z,86.20
2023-04-02T23:08:28.499Z,86.68
2023-04-02T23:13:49.313Z,86.39
2023-04-02T23:19:22.341Z,86.66
2023-04-02T23:24:27.606Z,86.90
2023-04-02T23:29:30.361Z,86.91
2023-04-02T23:34:33.299Z,86.97
2023-04-02T23:39:50.112Z,87.12
2023-04-02T23:45:16.254Z,87.25
2023-04-02T23:51:41.681Z,87.38
2023-04-02T23:56:46.693Z,87.42
